Time;durP1;ratioP1;P1;durP2;ratioP2;P2;SDS_P1;SDS_P2;PMS_P1;PMS_P2;Temp;Humidity;BMP_temperature;BMP_pressure;BME280_temperature;BME280_humidity;BME280_pressure;Samples;Min_cycle;Max_cycle;Signal;HPM_P1;HPM_P2
2022/05/26 00:01:18;;;;;;;;;3.67;1.00;;;;;18.19;52.84;101953.25;5061049;27;45323;-66
2022/05/26 00:03:45;;;;;;;;;1.00;1.00;;;;;18.14;51.59;101961.63;5059672;28;45277;-66
2022/05/26 00:06:13;;;;;;;;;0.67;0.67;;;;;18.12;51.60;101957.28;5064328;28;45339;-66
2022/05/26 00:08:38;;;;;;;;;0.00;0.00;;;;;18.07;51.97;101952.22;5064836;28;46226;-66
2022/05/26 00:11:06;;;;;;;;;1.00;1.00;;;;;18.05;52.35;101955.97;5046386;28;45427;-66
2022/05/26 00:13:32;;;;;;;;;0.00;0.00;;;;;18.00;51.94;101954.44;5065587;28;45438;-66
2022/05/26 00:15:57;;;;;;;;;0.00;0.00;;;;;17.96;52.73;101960.94;5064281;28;56903;-66
2022/05/26 00:18:23;;;;;;;;;0.67;0.67;;;;;17.92;52.15;101958.53;5066067;28;46273;-66
2022/05/26 00:20:48;;;;;;;;;1.33;1.00;;;;;17.89;52.61;101962.28;5065518;28;45454;-66
2022/05/26 00:23:13;;;;;;;;;0.33;0.33;;;;;17.88;52.07;101960.53;5047757;28;46581;-66
2022/05/26 00:25:39;;;;;;;;;2.00;1.00;;;;;17.84;53.29;101961.69;5064359;28;45482;-66
2022/05/26 00:28:05;;;;;;;;;1.00;1.00;;;;;17.81;52.14;101962.75;5065187;28;45963;-66
2022/05/26 00:30:30;;;;;;;;;0.67;0.67;;;;;17.80;53.17;101952.94;5065656;28;45492;-66
2022/05/26 00:32:56;;;;;;;;;0.33;0.00;;;;;17.78;52.27;101964.78;5063132;28;61519;-67
2022/05/26 00:35:22;;;;;;;;;1.33;0.00;;;;;17.79;52.34;101963.81;5063437;28;45481;-66
2022/05/26 00:37:47;;;;;;;;;2.33;1.00;;;;;17.80;52.50;101971.78;5048730;28;46143;-66
2022/05/26 00:40:13;;;;;;;;;0.00;0.00;;;;;17.76;52.36;101959.50;5066846;28;62738;-66
2022/05/26 00:42:39;;;;;;;;;0.00;0.00;;;;;17.73;52.37;101965.06;5067659;28;46654;-66
2022/05/26 00:45:05;;;;;;;;;2.00;0.00;;;;;17.75;52.51;101960.44;5066709;28;45457;-66
2022/05/26 00:47:34;;;;;;;;;0.33;0.00;;;;;17.80;52.25;101969.09;5068901;28;46567;-66
2022/05/26 00:50:10;;;;;;;;;0.00;0.00;;;;;17.81;52.18;101967.28;5067353;28;45454;-66
2022/05/26 00:52:42;;;;;;;;;0.33;0.33;;;;;17.80;52.30;101963.72;5050170;28;45463;-66
2022/05/26 00:55:13;;;;;;;;;1.67;0.00;;;;;17.82;52.51;101972.56;5070815;28;45355;-66
2022/05/26 00:57:46;;;;;;;;;0.00;0.00;;;;;17.78;51.92;101971.03;5049293;28;45908;-66
2022/05/26 01:00:32;;;;;;;;;0.00;0.00;;;;;17.77;52.17;101971.09;5049615;28;45450;-66
2022/05/26 01:03:18;;;;;;;;;0.67;0.67;;;;;17.74;51.96;101980.22;5062573;28;45366;-66
2022/05/26 01:05:45;;;;;;;;;0.00;0.00;;;;;17.76;53.07;101974.78;5067639;28;45596;-66
2022/05/26 01:08:18;;;;;;;;;0.00;0.00;;;;;17.74;52.41;101977.53;5068532;28;45488;-66
2022/05/26 01:10:44;;;;;;;;;0.33;0.33;;;;;17.76;52.82;101969.41;5048362;28;45466;-66
2022/05/26 01:13:09;;;;;;;;;0.00;0.00;;;;;17.73;52.64;101981.22;5050969;28;58744;-66
2022/05/26 01:15:36;;;;;;;;;2.00;0.00;;;;;17.69;53.12;101980.53;5067053;28;45573;-66
2022/05/26 01:18:11;;;;;;;;;0.00;0.00;;;;;17.66;53.77;101975.34;5048579;28;45993;-66
2022/05/26 01:20:44;;;;;;;;;0.00;0.00;;;;;17.57;53.57;101981.28;5067269;28;45458;-66
2022/05/26 01:23:15;;;;;;;;;0.00;0.00;;;;;17.52;54.10;101983.38;5044566;28;45307;-66
2022/05/26 01:26:05;;;;;;;;;0.67;0.00;;;;;17.53;54.08;101985.09;5061559;28;45521;-66
2022/05/26 01:28:59;;;;;;;;;0.33;0.33;;;;;17.50;55.50;101990.69;5072687;28;45225;-66
2022/05/26 01:31:48;;;;;;;;;0.33;0.00;;;;;17.39;56.05;101990.47;5006619;28;45533;-66
2022/05/26 01:34:24;;;;;;;;;0.00;0.00;;;;;17.31;56.12;101997.19;5077041;28;45423;-66
2022/05/26 01:37:06;;;;;;;;;0.00;0.00;;;;;17.26;56.90;101996.59;5061073;28;45505;-66
2022/05/26 01:39:38;;;;;;;;;0.67;0.67;;;;;17.28;57.12;101991.97;5059597;28;45474;-66
2022/05/26 01:42:19;;;;;;;;;0.00;0.00;;;;;17.25;56.50;101997.53;5063538;28;45450;-66
2022/05/26 01:44:54;;;;;;;;;1.00;1.00;;;;;17.25;56.56;101997.53;5050030;28;45455;-66
2022/05/26 01:47:47;;;;;;;;;0.00;0.00;;;;;17.24;55.96;101993.09;5065921;28;46724;-66
2022/05/26 01:50:24;;;;;;;;;0.00;0.00;;;;;17.19;56.43;101985.34;5066012;28;46220;-66
2022/05/26 01:53:17;;;;;;;;;0.00;0.00;;;;;17.20;56.51;101992.41;5049748;28;45562;-66
2022/05/26 01:56:09;;;;;;;;;0.00;0.00;;;;;17.20;56.51;101984.34;5067085;28;45454;-66
2022/05/26 01:58:45;;;;;;;;;1.67;0.00;;;;;17.19;57.39;101993.41;5067216;28;45479;-66
2022/05/26 02:01:14;;;;;;;;;0.00;0.00;;;;;17.12;56.76;101993.84;5050130;28;46714;-66
2022/05/26 02:03:41;;;;;;;;;0.00;0.00;;;;;17.12;57.31;101999.22;5065419;28;45552;-66
2022/05/26 02:06:19;;;;;;;;;0.00;0.00;;;;;17.11;56.86;101990.28;5067394;28;45532;-66
2022/05/26 02:08:53;;;;;;;;;0.00;0.00;;;;;17.12;57.95;101994.69;5048420;28;45606;-66
2022/05/26 02:11:21;;;;;;;;;0.00;0.00;;;;;17.08;58.11;101998.53;5064797;28;46813;-66
2022/05/26 02:13:55;;;;;;;;;0.00;0.00;;;;;17.03;57.34;101992.56;5048337;28;45639;-66
2022/05/26 02:16:27;;;;;;;;;0.00;0.00;;;;;17.00;57.75;101987.34;5071948;28;45462;-66
2022/05/26 02:18:56;;;;;;;;;1.00;1.00;;;;;16.98;57.72;101995.50;5051983;28;45614;-66
2022/05/26 02:21:30;;;;;;;;;0.00;0.00;;;;;17.00;58.27;102012.41;5059525;28;45387;-66
2022/05/26 02:24:07;;;;;;;;;0.33;0.33;;;;;16.94;57.67;102004.72;5046071;28;46826;-66
2022/05/26 02:26:34;;;;;;;;;1.00;0.00;;;;;16.89;58.16;102005.91;5065063;28;45571;-66
2022/05/26 02:31:43;;;;;;;;;0.00;0.00;;;;;16.66;59.04;102003.59;5060376;28;45298;-66
2022/05/26 02:34:09;;;;;;;;;0.00;0.00;;;;;16.61;59.97;102007.47;5064563;28;45226;-66
2022/05/26 02:36:36;;;;;;;;;0.67;0.67;;;;;16.58;59.90;102016.56;5051289;28;60682;-66
2022/05/26 02:39:03;;;;;;;;;1.33;0.67;;;;;16.56;61.74;102018.47;5041454;28;59330;-66
2022/05/26 02:41:29;;;;;;;;;0.33;0.33;;;;;16.53;60.84;102007.88;5031927;28;46287;-67
2022/05/26 02:43:55;;;;;;;;;0.67;0.67;;;;;16.48;61.19;102007.31;5064962;28;45182;-66
2022/05/26 02:46:57;;;;;;;;;0.33;0.33;;;;;16.45;60.56;102004.78;5059555;28;57243;-66
2022/05/26 02:49:52;;;;;;;;;0.00;0.00;;;;;16.42;62.17;102015.69;5042147;28;45516;-66
2022/05/26 02:52:23;;;;;;;;;1.00;1.00;;;;;16.40;60.66;102014.91;5061767;28;46070;-67
2022/05/26 02:54:57;;;;;;;;;0.00;0.00;;;;;16.36;61.12;102006.16;5044099;28;45332;-66
2022/05/26 02:57:44;;;;;;;;;0.00;0.00;;;;;16.33;61.41;102014.38;5059150;28;45491;-66
2022/05/26 03:00:12;;;;;;;;;1.33;0.00;;;;;16.33;62.80;102011.69;5028336;28;45569;-66
2022/05/26 03:03:01;;;;;;;;;0.00;0.00;;;;;16.36;61.55;102009.72;5059131;28;46862;-66
2022/05/26 03:05:41;;;;;;;;;1.67;0.00;;;;;16.38;62.35;102005.13;5041741;28;45462;-66
2022/05/26 03:08:13;;;;;;;;;1.00;1.00;;;;;16.35;61.84;102012.50;5025422;28;45412;-65
2022/05/26 03:10:38;;;;;;;;;2.00;1.00;;;;;16.34;61.66;102002.69;5050812;28;45232;-65
2022/05/26 03:13:03;;;;;;;;;0.00;0.00;;;;;16.33;62.56;102009.00;5058256;28;46158;-66
2022/05/26 03:15:30;;;;;;;;;1.00;0.00;;;;;16.29;61.97;102005.63;5058679;28;64340;-66
2022/05/26 03:17:57;;;;;;;;;0.00;0.00;;;;;16.28;64.61;102009.28;5058117;28;45390;-66
2022/05/26 03:20:23;;;;;;;;;0.67;0.67;;;;;16.25;63.46;102016.63;5059445;28;45504;-66
2022/05/26 03:22:48;;;;;;;;;0.00;0.00;;;;;16.16;63.16;102016.16;5059906;28;64595;-66
2022/05/26 03:25:13;;;;;;;;;0.67;0.33;;;;;16.09;62.69;102012.09;5066210;28;45296;-66
2022/05/26 03:27:39;;;;;;;;;1.67;0.00;;;;;16.03;62.79;102009.75;5058101;28;59002;-66
2022/05/26 03:30:05;;;;;;;;;0.00;0.00;;;;;16.01;63.38;102004.47;5057569;28;45455;-66
2022/05/26 03:32:30;;;;;;;;;0.00;0.00;;;;;15.99;62.95;102003.66;5057757;28;45320;-66
2022/05/26 03:43:08;;;;;;;;;0.00;0.00;;;;;16.04;62.90;102006.09;5063012;28;45780;-66
2022/05/26 03:45:34;;;;;;;;;0.67;0.00;;;;;16.10;62.50;102010.28;5052296;28;65843;-66
2022/05/26 03:48:01;;;;;;;;;0.00;0.00;;;;;16.11;62.59;102014.69;5062046;28;45330;-66
2022/05/26 03:50:27;;;;;;;;;0.00;0.00;;;;;16.19;62.86;102021.38;5066496;28;45590;-65
2022/05/26 03:52:53;;;;;;;;;0.00;0.00;;;;;16.29;62.89;102018.19;5057786;28;46299;-66
2022/05/26 03:55:20;;;;;;;;;2.33;0.00;;;;;16.37;62.47;102029.38;5066045;28;45292;-66
2022/05/26 03:57:45;;;;;;;;;0.67;0.00;;;;;16.39;62.57;102032.84;5045574;28;45360;-66
2022/05/26 04:00:12;;;;;;;;;2.00;0.00;;;;;16.43;62.43;102036.22;5050583;28;45592;-65
2022/05/26 04:02:37;;;;;;;;;0.00;0.00;;;;;16.48;62.45;102028.78;5058341;28;47141;-65
2022/05/26 04:05:03;;;;;;;;;0.00;0.00;;;;;16.50;62.59;102038.50;5064735;28;45183;-65
2022/05/26 04:07:29;;;;;;;;;0.00;0.00;;;;;16.50;63.38;102034.94;5058550;28;45336;-65
2022/05/26 04:09:54;;;;;;;;;1.00;1.00;;;;;16.48;63.01;102039.53;5058803;28;58564;-66
2022/05/26 04:12:19;;;;;;;;;2.00;2.00;;;;;16.47;62.95;102044.03;5059399;28;46112;-65
2022/05/26 04:14:45;;;;;;;;;1.67;1.67;;;;;16.49;62.26;102043.94;5062203;28;62144;-66
2022/05/26 04:17:10;;;;;;;;;1.00;1.00;;;;;16.52;62.44;102052.69;5062459;28;45717;-66
2022/05/26 04:19:41;;;;;;;;;1.67;1.67;;;;;16.55;61.55;102051.66;5062232;28;45283;-66
2022/05/26 04:22:16;;;;;;;;;0.67;0.67;;;;;16.55;62.36;102043.59;5061056;28;46554;-66
2022/05/26 04:24:42;;;;;;;;;1.67;1.67;;;;;16.51;62.12;102050.94;5062219;28;45344;-66
2022/05/26 04:27:07;;;;;;;;;1.00;1.00;;;;;16.53;62.71;102058.91;5062305;28;45296;-66
2022/05/26 04:29:33;;;;;;;;;5.33;2.00;;;;;16.54;62.15;102057.97;5061134;28;45335;-66
2022/05/26 04:32:00;;;;;;;;;3.00;2.00;;;;;16.56;62.47;102055.19;5061462;28;46290;-66
2022/05/26 04:34:25;;;;;;;;;3.00;0.67;;;;;16.58;61.82;102056.00;5060579;28;64136;-66
2022/05/26 04:36:51;;;;;;;;;3.67;2.00;;;;;16.60;62.11;102063.00;5043578;28;45351;-66
2022/05/26 04:39:17;;;;;;;;;1.00;1.00;;;;;16.60;61.88;102065.69;5060812;28;45426;-66
2022/05/26 04:41:43;;;;;;;;;2.00;1.00;;;;;16.59;61.92;102060.41;5060882;28;46082;-66
2022/05/26 04:44:15;;;;;;;;;2.00;0.33;;;;;16.58;61.90;102062.22;5060004;28;45372;-66
2022/05/26 04:46:40;;;;;;;;;4.33;1.67;;;;;16.57;62.33;102067.69;5060049;28;45409;-66
2022/05/26 04:49:07;;;;;;;;;1.00;1.00;;;;;16.56;61.96;102068.63;5058900;28;61778;-66
2022/05/26 04:51:34;;;;;;;;;1.00;0.67;;;;;16.53;61.63;102069.66;5058235;28;46294;-66
2022/05/26 04:54:01;;;;;;;;;1.67;0.67;;;;;16.50;61.86;102073.41;5063757;28;45545;-66
2022/05/26 04:56:26;;;;;;;;;1.00;1.00;;;;;16.49;61.78;102079.72;5058167;28;45572;-66
2022/05/26 04:58:52;;;;;;;;;1.00;1.00;;;;;16.51;61.50;102077.81;5057996;28;45504;-66
2022/05/26 05:01:19;;;;;;;;;0.33;0.33;;;;;16.54;61.86;102083.03;5057543;28;52796;-66
2022/05/26 05:03:45;;;;;;;;;1.00;1.00;;;;;16.58;61.50;102088.22;5061764;28;46664;-66
2022/05/26 05:06:10;;;;;;;;;3.00;1.00;;;;;16.57;61.53;102076.63;5057340;28;45675;-65
2022/05/26 05:08:36;;;;;;;;;2.00;2.00;;;;;16.57;61.60;102083.78;5067161;28;60271;-65
2022/05/26 05:11:02;;;;;;;;;1.00;1.00;;;;;16.58;61.97;102088.22;5060923;28;45538;-65
2022/05/26 05:13:27;;;;;;;;;1.33;1.00;;;;;16.59;62.09;102089.97;5060319;28;45465;-65
2022/05/26 05:15:58;;;;;;;;;4.00;1.00;;;;;16.58;61.73;102089.06;5058729;28;45330;-65
2022/05/26 05:18:24;;;;;;;;;0.67;0.67;;;;;16.56;61.43;102096.38;5042826;28;45372;-66
2022/05/26 05:20:50;;;;;;;;;1.33;1.33;;;;;16.60;61.46;102084.50;5057452;28;66511;-65
2022/05/26 05:23:15;;;;;;;;;2.00;0.67;;;;;16.62;61.57;102082.59;5069261;28;45507;-66
2022/05/26 05:25:49;;;;;;;;;0.67;0.67;;;;;16.65;61.34;102081.56;5062770;28;61737;-66
2022/05/26 05:28:16;;;;;;;;;3.00;1.33;;;;;16.68;61.46;102084.94;5042085;28;45395;-66
2022/05/26 05:30:46;;;;;;;;;1.67;0.67;;;;;16.70;61.03;102093.78;5041349;28;45284;-66
2022/05/26 05:33:15;;;;;;;;;2.33;1.00;;;;;16.75;61.14;102101.59;5068787;28;45556;-66
2022/05/26 05:35:48;;;;;;;;;0.67;0.67;;;;;16.82;61.33;102092.22;5059186;28;45300;-66
2022/05/26 05:38:15;;;;;;;;;2.00;2.00;;;;;16.87;61.21;102097.34;5058681;28;45343;-65
2022/05/26 05:40:41;;;;;;;;;1.67;1.00;;;;;16.92;61.02;102098.00;5060373;28;46176;-66
2022/05/26 05:43:06;;;;;;;;;2.00;0.33;;;;;16.94;61.12;102101.44;5067103;28;57092;-63
2022/05/26 05:45:32;;;;;;;;;0.00;0.00;;;;;16.96;60.92;102102.25;5058857;28;45305;-64
2022/05/26 05:47:57;;;;;;;;;0.67;0.67;;;;;16.95;60.33;102105.88;5062739;28;45577;-63
2022/05/26 05:50:22;;;;;;;;;1.67;1.67;;;;;16.92;60.46;102102.50;5071325;28;46149;-64
2022/05/26 05:52:48;;;;;;;;;2.00;1.00;;;;;16.87;60.75;102108.97;5067213;28;51343;-63
2022/05/26 05:55:13;;;;;;;;;1.00;1.00;;;;;16.87;60.31;102110.78;5058057;28;61359;-63
2022/05/26 05:57:38;;;;;;;;;2.50;1.00;;;;;16.85;60.70;102116.22;5057528;28;59168;-64
2022/05/26 06:00:05;;;;;;;;;1.67;0.00;;;;;16.86;60.11;102123.34;5058138;28;67067;-64
2022/05/26 06:02:31;;;;;;;;;2.33;1.33;;;;;16.86;60.28;102128.72;5048833;28;45335;-63
2022/05/26 06:04:57;;;;;;;;;0.67;0.67;;;;;16.90;60.13;102126.75;5026032;28;1155588;-64
2022/05/26 06:07:22;;;;;;;;;1.00;1.00;;;;;16.93;60.51;102131.09;5058654;28;45363;-64
2022/05/26 06:09:49;;;;;;;;;2.00;1.00;;;;;16.94;60.26;102125.63;5063654;28;45602;-63
2022/05/26 06:12:16;;;;;;;;;2.67;1.00;;;;;16.99;60.40;102128.94;5059706;28;45352;-64
2022/05/26 06:14:42;;;;;;;;;1.00;1.00;;;;;17.07;59.93;102125.81;5065875;28;45562;-64
2022/05/26 06:17:08;;;;;;;;;0.00;0.00;;;;;17.16;60.26;102140.56;5054605;28;45455;-64
2022/05/26 06:19:34;;;;;;;;;0.33;0.00;;;;;17.24;60.08;102143.66;5055561;28;45352;-64
2022/05/26 06:22:12;;;;;;;;;2.00;0.00;;;;;17.27;60.46;102156.94;5048636;28;45332;-64
2022/05/26 06:24:38;;;;;;;;;0.00;0.00;;;;;17.21;60.59;102149.22;5064851;28;45442;-64
2022/05/26 06:29:49;;;;;;;;;0.00;0.00;;;;;17.12;59.90;102155.13;5066790;28;45478;-64
2022/05/26 06:29:50;;;;;;;;;0.00;0.00;;;;;17.08;60.57;102150.84;5065396;28;45368;-65
2022/05/26 06:37:46;;;;;;;;;1.00;1.00;;;;;17.27;60.24;102159.63;5046414;28;45312;-65
2022/05/26 06:40:14;;;;;;;;;0.67;0.67;;;;;17.36;60.37;102169.00;5061932;28;65723;-65
2022/05/26 06:42:39;;;;;;;;;1.00;1.00;;;;;17.45;60.17;102167.59;5055454;28;45350;-65
2022/05/26 06:45:05;;;;;;;;;2.00;0.00;;;;;17.54;59.95;102167.06;5057130;28;45575;-65
2022/05/26 06:47:31;;;;;;;;;0.00;0.00;;;;;17.62;59.48;102177.38;5044028;28;45583;-64
2022/05/26 06:49:56;;;;;;;;;5.00;1.00;;;;;17.65;58.88;102175.38;5046172;28;45435;-64
2022/05/26 06:52:23;;;;;;;;;0.00;0.00;;;;;17.63;58.82;102171.06;5069260;28;45348;-64
2022/05/26 06:54:48;;;;;;;;;0.00;0.00;;;;;17.60;59.23;102187.34;5059449;28;45461;-64
2022/05/26 06:57:15;;;;;;;;;3.67;1.00;;;;;17.50;59.45;102181.66;5057163;28;45209;-65
2022/05/26 06:59:41;;;;;;;;;0.33;0.33;;;;;17.40;59.74;102183.13;5063117;28;46025;-64
2022/05/26 07:02:08;;;;;;;;;0.00;0.00;;;;;17.28;60.29;102193.63;5053297;28;45307;-64
2022/05/26 07:04:33;;;;;;;;;0.33;0.00;;;;;17.23;60.33;102201.06;5057025;28;45451;-65
2022/05/26 07:06:59;;;;;;;;;1.00;0.00;;;;;17.22;61.66;102191.28;5050954;28;45268;-65
2022/05/26 07:09:25;;;;;;;;;0.00;0.00;;;;;17.23;60.87;102194.84;5054168;28;46220;-64
2022/05/26 07:11:52;;;;;;;;;0.33;0.33;;;;;17.28;60.95;102190.94;5052090;28;45351;-65
2022/05/26 07:14:17;;;;;;;;;0.67;0.67;;;;;17.42;61.59;102190.16;5056083;28;45454;-64
2022/05/26 07:16:44;;;;;;;;;0.00;0.00;;;;;17.60;60.75;102200.81;5056633;28;45340;-64
2022/05/26 07:19:11;;;;;;;;;0.00;0.00;;;;;17.94;61.12;102206.94;5069303;28;46382;-64
2022/05/26 07:21:36;;;;;;;;;0.00;0.00;;;;;18.25;60.61;102203.31;5070431;28;45431;-63
2022/05/26 07:24:01;;;;;;;;;0.00;0.00;;;;;18.53;59.67;102204.31;5063795;28;61008;-64
2022/05/26 07:26:28;;;;;;;;;0.00;0.00;;;;;18.76;59.27;102205.56;5059375;28;45581;-64
2022/05/26 07:28:54;;;;;;;;;0.00;0.00;;;;;18.95;58.76;102210.69;5055043;28;46936;-64
2022/05/26 07:31:20;;;;;;;;;0.00;0.00;;;;;19.07;58.10;102205.47;5057606;28;45559;-64
2022/05/26 07:33:47;;;;;;;;;1.00;0.00;;;;;19.15;57.95;102204.03;5057980;28;45364;-64
2022/05/26 07:41:41;;;;;;;;;2.33;2.33;;;;;18.83;56.89;102235.69;5057459;28;45486;-64
2022/05/26 07:44:07;;;;;;;;;2.67;2.67;;;;;18.44;57.73;102246.13;5055155;28;61459;-64
2022/05/26 07:46:32;;;;;;;;;2.00;2.00;;;;;18.15;58.00;102250.59;5057085;28;56861;-65
2022/05/26 07:48:58;;;;;;;;;3.33;2.33;;;;;17.98;58.55;102252.44;5054223;28;46236;-65
2022/05/26 07:51:24;;;;;;;;;1.67;1.67;;;;;17.85;58.88;102254.94;5060410;28;45441;-64
2022/05/26 07:53:50;;;;;;;;;3.33;2.33;;;;;17.71;58.65;102259.41;5065326;28;45536;-64
2022/05/26 07:56:15;;;;;;;;;4.33;3.67;;;;;17.53;58.73;102251.41;5062936;28;45882;-65
2022/05/26 07:58:41;;;;;;;;;5.33;3.00;;;;;17.43;58.97;102261.81;5064888;28;45491;-65
2022/05/26 08:01:07;;;;;;;;;6.00;3.67;;;;;17.35;59.92;102264.94;5065965;28;45162;-65
2022/05/26 08:03:33;;;;;;;;;3.00;3.00;;;;;17.29;59.32;102262.59;5065055;28;45548;-65
2022/05/26 08:05:59;;;;;;;;;4.00;4.00;;;;;17.20;59.25;102272.03;5045050;28;45252;-66
2022/05/26 08:08:26;;;;;;;;;2.67;2.67;;;;;17.16;59.39;102262.41;5063295;28;46160;-64
2022/05/26 08:10:52;;;;;;;;;4.00;2.67;;;;;17.15;59.69;102279.47;5061686;28;45276;-65
2022/05/26 08:13:17;;;;;;;;;3.00;2.00;;;;;17.12;60.10;102271.59;5049120;28;45453;-64
2022/05/26 08:15:43;;;;;;;;;2.67;2.67;;;;;17.15;59.84;102275.91;5061015;28;45470;-64
2022/05/26 08:18:08;;;;;;;;;4.67;3.67;;;;;17.19;59.55;102267.63;5063225;28;46024;-64
2022/05/26 08:20:34;;;;;;;;;3.00;3.00;;;;;17.26;59.77;102272.63;5065582;28;63257;-64
2022/05/26 08:22:59;;;;;;;;;6.00;3.67;;;;;17.31;59.50;102270.56;5063310;28;61892;-64
2022/05/26 08:25:26;;;;;;;;;3.67;2.00;;;;;17.42;59.44;102272.69;5044630;28;45433;-65
2022/05/26 08:27:51;;;;;;;;;2.00;2.00;;;;;17.54;59.44;102266.59;5064239;27;45454;-64
2022/05/26 08:30:17;;;;;;;;;1.67;1.67;;;;;17.65;58.86;102274.06;5064726;28;45529;-64
2022/05/26 08:32:44;;;;;;;;;2.00;2.00;;;;;17.81;58.60;102271.38;5039972;28;45255;-65
2022/05/26 08:35:10;;;;;;;;;4.33;4.33;;;;;18.02;58.76;102270.13;5054759;28;45493;-64
2022/05/26 08:37:35;;;;;;;;;3.00;3.00;;;;;18.26;58.27;102269.66;5050310;28;46704;-64
2022/05/26 08:40:01;;;;;;;;;5.33;5.33;;;;;18.47;57.45;102267.50;5054451;28;45437;-63
2022/05/26 08:42:31;;;;;;;;;4.33;3.00;;;;;18.66;57.08;102261.00;5060705;28;45702;-63
2022/05/26 08:45:00;;;;;;;;;3.67;3.67;;;;;18.87;57.46;102274.97;5061001;28;45481;-64
2022/05/26 08:47:33;;;;;;;;;8.33;5.00;;;;;19.13;55.93;102276.06;5045101;28;46527;-64
2022/05/26 08:50:06;;;;;;;;;5.00;5.00;;;;;19.28;56.26;102267.97;5044346;28;45462;-66
2022/05/26 08:52:43;;;;;;;;;2.67;1.33;;;;;19.31;55.79;102274.03;5046793;28;45780;-66
2022/05/26 08:55:16;;;;;;;;;2.00;2.00;;;;;19.33;55.54;102277.50;5065843;28;45481;-67
2022/05/26 08:57:56;;;;;;;;;4.00;4.00;;;;;19.31;55.66;102278.56;5065039;28;45566;-66
2022/05/26 09:00:23;;;;;;;;;4.00;4.00;;;;;19.29;54.57;102278.66;5066116;28;45560;-66
2022/05/26 09:02:54;;;;;;;;;3.67;2.33;;;;;19.23;54.51;102287.16;5065865;28;45504;-66
2022/05/26 09:05:20;;;;;;;;;2.33;2.33;;;;;19.19;54.16;102285.63;5067049;28;45505;-67
2022/05/26 09:13:42;;;;;;;;;4.00;3.00;;;;;19.24;54.93;102294.28;5051834;28;45519;-66
2022/05/26 09:16:08;;;;;;;;;2.00;1.00;;;;;19.26;54.30;102297.72;5064550;28;45614;-66
2022/05/26 09:18:35;;;;;;;;;2.00;2.00;;;;;19.26;54.25;102297.72;5065733;28;46591;-66
2022/05/26 09:21:13;;;;;;;;;2.00;2.00;;;;;19.27;53.91;102293.22;5068086;28;45500;-66
2022/05/26 09:23:42;;;;;;;;;1.33;1.33;;;;;19.28;54.35;102303.03;5064011;28;45564;-66
2022/05/26 09:26:09;;;;;;;;;2.00;2.00;;;;;19.28;53.55;102303.91;5066800;28;45567;-66
2022/05/26 09:28:38;;;;;;;;;2.00;2.00;;;;;19.38;52.99;102300.63;5046739;28;46196;-69
2022/05/26 09:31:31;;;;;;;;;2.00;2.00;;;;;19.63;51.90;102298.09;5064718;28;45524;-69
2022/05/26 09:34:10;;;;;;;;;4.00;2.00;;;;;19.82;51.81;102302.31;5066349;28;46815;-64
2022/05/26 09:36:42;;;;;;;;;1.67;1.00;;;;;19.90;51.45;102310.75;5065188;28;45594;-63
2022/05/26 09:39:08;;;;;;;;;0.33;0.33;;;;;19.95;51.56;102315.88;5068298;28;45276;-59
2022/05/26 09:41:42;;;;;;;;;2.00;2.00;;;;;20.00;51.07;102319.13;5069309;28;45756;-58
2022/05/26 09:44:34;;;;;;;;;2.00;2.00;;;;;20.04;50.63;102322.47;5066542;28;45484;-59
2022/05/26 09:47:03;;;;;;;;;2.00;2.00;;;;;20.22;51.00;102312.28;5052971;28;45457;-61
2022/05/26 09:49:37;;;;;;;;;2.33;1.33;;;;;20.73;50.63;102320.53;5064444;28;45903;-60
2022/05/26 09:52:18;;;;;;;;;1.00;1.00;;;;;21.77;50.37;102319.47;5064276;28;45622;-62
2022/05/26 09:54:45;;;;;;;;;3.00;1.75;;;;;22.45;46.93;102317.13;5066796;28;45247;-61
2022/05/26 09:57:17;;;;;;;;;0.00;0.00;;;;;22.82;47.84;102315.25;5066987;28;45781;-62
2022/05/26 09:59:44;;;;;;;;;1.25;1.25;;;;;22.95;45.95;102316.84;5067835;28;46176;-63
2022/05/26 10:02:33;;;;;;;;;0.00;0.00;;;;;22.92;45.77;102318.97;5054883;28;45335;-63
2022/05/26 10:05:11;;;;;;;;;1.75;1.75;;;;;22.73;46.07;102322.25;5041005;28;45252;-61
2022/05/26 10:07:58;;;;;;;;;1.50;0.25;;;;;22.41;45.88;102318.34;5042644;28;45628;-61
2022/05/26 10:10:33;;;;;;;;;2.00;2.00;;;;;22.11;46.34;102332.31;5025899;28;45421;-61
2022/05/26 10:13:16;;;;;;;;;2.25;2.25;;;;;22.00;46.53;102326.88;5034719;28;45414;-61
2022/05/26 10:15:58;;;;;;;;;3.00;2.33;;;;;22.01;45.70;102331.31;5044921;28;45319;-60
2022/05/26 10:18:37;;;;;;;;;3.00;1.00;;;;;22.12;46.34;102337.66;5037841;28;45395;-60
2022/05/26 10:21:40;;;;;;;;;1.50;1.50;;;;;22.61;46.22;102334.91;5036874;28;46169;-60
2022/05/26 10:24:45;;;;;;;;;2.25;2.25;;;;;23.00;45.47;102334.59;5040140;28;45846;-61
2022/05/26 10:27:46;;;;;;;;;1.00;1.00;;;;;23.83;43.79;102337.94;5075561;27;45213;-61
2022/05/26 10:30:33;;;;;;;;;0.75;0.75;;;;;24.65;43.73;102331.16;5038014;28;45484;-61
2022/05/26 10:33:15;;;;;;;;;1.75;0.00;;;;;25.65;43.57;102326.94;5038828;28;45485;-61
2022/05/26 10:35:52;;;;;;;;;0.00;0.00;;;;;25.92;40.54;102318.94;5036245;28;45533;-61
2022/05/26 10:38:20;;;;;;;;;0.25;0.25;;;;;25.66;40.44;102328.66;5040109;28;45628;-61
2022/05/26 10:40:52;;;;;;;;;0.00;0.00;;;;;25.30;38.28;102333.66;5059006;28;45616;-61
2022/05/26 10:43:35;;;;;;;;;0.00;0.00;;;;;25.34;41.17;102325.06;5038809;28;45562;-61
2022/05/26 10:46:03;;;;;;;;;1.00;1.00;;;;;25.49;40.20;102322.00;5039348;28;45358;-61
2022/05/26 10:48:43;;;;;;;;;1.50;0.25;;;;;25.37;39.78;102332.13;5038620;28;45362;-61
2022/05/26 10:51:15;;;;;;;;;0.00;0.00;;;;;25.14;39.43;102326.84;5038633;28;45559;-61
2022/05/26 10:53:57;;;;;;;;;0.00;0.00;;;;;24.89;39.69;102333.59;5053824;28;45372;-62
2022/05/26 10:56:32;;;;;;;;;0.50;0.50;;;;;24.66;39.67;102327.44;5056471;28;45373;-61
2022/05/26 10:59:23;;;;;;;;;0.00;0.00;;;;;24.38;40.25;102324.31;5054134;28;45423;-61
2022/05/26 11:01:51;;;;;;;;;1.50;0.00;;;;;23.93;40.39;102325.38;5039410;28;45253;-61
2022/05/26 11:04:33;;;;;;;;;1.00;1.00;;;;;23.49;40.77;102340.72;5045057;28;45497;-61
2022/05/26 11:07:05;;;;;;;;;1.00;1.00;;;;;23.09;41.85;102332.03;5061235;28;45262;-61
2022/05/26 11:09:39;;;;;;;;;0.25;0.25;;;;;22.76;41.96;102333.72;5065031;28;45452;-61
2022/05/26 11:12:09;;;;;;;;;2.00;2.00;;;;;22.45;42.28;102336.09;5074305;28;45588;-61
2022/05/26 11:17:42;;;;;;;;;2.50;1.25;;;;;22.06;43.20;102338.09;5057103;28;45267;-61
2022/05/26 11:20:14;;;;;;;;;1.33;1.33;;;;;22.04;43.42;102333.78;5061467;28;45362;-61
2022/05/26 11:22:45;;;;;;;;;2.25;2.25;;;;;22.24;43.69;102330.44;5041438;28;45233;-61
2022/05/26 11:25:13;;;;;;;;;2.25;2.25;;;;;22.56;43.87;102327.13;5057869;28;46051;-62
2022/05/26 11:27:50;;;;;;;;;0.75;0.75;;;;;22.76;42.90;102322.88;5047905;28;45288;-62
2022/05/26 11:36:08;;;;;;;;;2.00;2.00;;;;;23.98;41.50;102314.13;5043286;28;45700;-62
2022/05/26 11:38:38;;;;;;;;;0.25;0.25;;;;;23.96;40.88;102319.66;5043994;28;45548;-62
2022/05/26 11:41:07;;;;;;;;;1.25;1.25;;;;;24.02;41.53;102308.28;5044170;28;45289;-62
2022/05/26 11:43:44;;;;;;;;;0.00;0.00;;;;;24.20;41.49;102308.59;5040998;28;45424;-62
2022/05/26 11:46:11;;;;;;;;;0.00;0.00;;;;;24.42;40.55;102304.91;5058740;28;46852;-62
2022/05/26 11:48:42;;;;;;;;;0.00;0.00;;;;;24.56;38.89;102305.56;5057280;28;45177;-62
2022/05/26 11:51:31;;;;;;;;;0.00;0.00;;;;;24.71;39.36;102306.16;5066306;28;45397;-62
2022/05/26 11:53:57;;;;;;;;;1.75;0.75;;;;;24.83;39.92;102298.75;5056687;28;45390;-62
2022/05/26 11:56:25;;;;;;;;;0.25;0.25;;;;;25.01;39.14;102302.56;5039710;28;45602;-62
2022/05/26 11:59:22;;;;;;;;;0.00;0.00;;;;;25.10;38.52;102309.06;5060837;28;45378;-62
2022/05/26 12:01:53;;;;;;;;;0.00;0.00;;;;;25.13;38.24;102300.63;5077436;28;45458;-63
2022/05/26 12:04:36;;;;;;;;;0.00;0.00;;;;;25.15;37.50;102314.09;5063807;28;45236;-62
2022/05/26 12:07:14;;;;;;;;;0.00;0.00;;;;;25.16;38.78;102304.94;5049217;28;45348;-61
2022/05/26 12:09:39;;;;;;;;;0.00;0.00;;;;;25.22;37.47;102298.94;5057625;28;45299;-62
2022/05/26 12:12:17;;;;;;;;;0.00;0.00;;;;;25.23;38.46;102298.81;5066896;28;45495;-61
2022/05/26 12:15:06;;;;;;;;;1.00;1.00;;;;;25.19;38.25;102308.25;5058448;28;46027;-62
2022/05/26 12:17:50;;;;;;;;;0.00;0.00;;;;;25.12;38.58;102295.31;5040458;28;46311;-62